sensor_id;sensor_type;location;lat;lon;timestamp;temperature;humidity
46055;DHT22;31788;6.954;-71.872;2022-11-15T00:00:49;27.70;99.90
46055;DHT22;31788;6.954;-71.872;2022-11-15T00:03:16;27.70;99.90
46055;DHT22;31788;6.954;-71.872;2022-11-15T00:05:44;27.70;99.90
46055;DHT22;31788;6.954;-71.872;2022-11-15T00:08:11;27.70;99.90
46055;DHT22;31788;6.954;-71.872;2022-11-15T00:10:39;27.60;99.90
46055;DHT22;31788;6.954;-71.872;2022-11-15T00:13:11;27.70;99.90
46055;DHT22;31788;6.954;-71.872;2022-11-15T00:15:40;27.70;99.90
46055;DHT22;31788;6.954;-71.872;2022-11-15T00:18:12;27.60;99.90
46055;DHT22;31788;6.954;-71.872;2022-11-15T00:20:40;27.60;99.90
46055;DHT22;31788;6.954;-71.872;2022-11-15T00:23:07;27.60;99.90
46055;DHT22;31788;6.954;-71.872;2022-11-15T00:25:34;27.60;99.90
46055;DHT22;31788;6.954;-71.872;2022-11-15T00:28:01;27.60;99.90
46055;DHT22;31788;6.954;-71.872;2022-11-15T00:30:28;27.60;99.90
46055;DHT22;31788;6.954;-71.872;2022-11-15T00:32:55;27.60;99.90
46055;DHT22;31788;6.954;-71.872;2022-11-15T00:35:21;27.60;99.90
46055;DHT22;31788;6.954;-71.872;2022-11-15T00:37:48;27.60;99.90
46055;DHT22;31788;6.954;-71.872;2022-11-15T00:40:15;27.50;99.90
46055;DHT22;31788;6.954;-71.872;2022-11-15T00:42:42;27.60;99.90
46055;DHT22;31788;6.954;-71.872;2022-11-15T00:45:34;27.50;99.90
46055;DHT22;31788;6.954;-71.872;2022-11-15T00:48:01;27.50;99.90
46055;DHT22;31788;6.954;-71.872;2022-11-15T00:50:27;27.50;99.90
46055;DHT22;31788;6.954;-71.872;2022-11-15T00:52:54;27.50;99.90
46055;DHT22;31788;6.954;-71.872;2022-11-15T00:55:20;27.50;99.90
46055;DHT22;31788;6.954;-71.872;2022-11-15T00:57:47;27.50;99.90
46055;DHT22;31788;6.954;-71.872;2022-11-15T01:00:14;27.50;99.90
46055;DHT22;31788;6.954;-71.872;2022-11-15T01:02:42;27.50;99.90
46055;DHT22;31788;6.954;-71.872;2022-11-15T01:05:08;27.50;99.90
46055;DHT22;31788;6.954;-71.872;2022-11-15T01:07:35;27.50;99.90
46055;DHT22;31788;6.954;-71.872;2022-11-15T01:10:03;27.50;99.90
46055;DHT22;31788;6.954;-71.872;2022-11-15T01:12:31;27.50;99.90
46055;DHT22;31788;6.954;-71.872;2022-11-15T01:14:57;27.50;99.90
46055;DHT22;31788;6.954;-71.872;2022-11-15T01:17:24;27.50;99.90
46055;DHT22;31788;6.954;-71.872;2022-11-15T01:19:51;27.50;99.90
46055;DHT22;31788;6.954;-71.872;2022-11-15T01:22:20;27.40;99.90
46055;DHT22;31788;6.954;-71.872;2022-11-15T01:24:47;27.40;99.90
46055;DHT22;31788;6.954;-71.872;2022-11-15T01:27:15;27.40;99.90
46055;DHT22;31788;6.954;-71.872;2022-11-15T01:29:43;27.40;99.90
46055;DHT22;31788;6.954;-71.872;2022-11-15T01:32:10;27.40;99.90
46055;DHT22;31788;6.954;-71.872;2022-11-15T01:34:37;27.40;99.90
46055;DHT22;31788;6.954;-71.872;2022-11-15T01:37:04;27.50;99.90
46055;DHT22;31788;6.954;-71.872;2022-11-15T01:39:31;27.50;99.90
46055;DHT22;31788;6.954;-71.872;2022-11-15T01:41:58;27.50;99.90
46055;DHT22;31788;6.954;-71.872;2022-11-15T01:44:52;27.50;99.90
46055;DHT22;31788;6.954;-71.872;2022-11-15T01:47:28;27.40;99.90
46055;DHT22;31788;6.954;-71.872;2022-11-15T01:50:05;27.50;99.90
46055;DHT22;31788;6.954;-71.872;2022-11-15T01:52:33;27.40;99.90
46055;DHT22;31788;6.954;-71.872;2022-11-15T01:57:40;27.40;99.90
46055;DHT22;31788;6.954;-71.872;2022-11-15T02:00:09;27.40;99.90
46055;DHT22;31788;6.954;-71.872;2022-11-15T02:02:36;27.40;99.90
46055;DHT22;31788;6.954;-71.872;2022-11-15T02:05:05;27.40;99.90
46055;DHT22;31788;6.954;-71.872;2022-11-15T02:07:33;27.40;99.90
46055;DHT22;31788;6.954;-71.872;2022-11-15T02:10:08;27.40;99.90
46055;DHT22;31788;6.954;-71.872;2022-11-15T02:12:35;27.30;99.90
46055;DHT22;31788;6.954;-71.872;2022-11-15T02:15:02;27.30;99.90
46055;DHT22;31788;6.954;-71.872;2022-11-15T02:17:52;27.40;99.90
46055;DHT22;31788;6.954;-71.872;2022-11-15T02:23:31;27.30;99.90
46055;DHT22;31788;6.954;-71.872;2022-11-15T02:26:24;27.30;99.90
46055;DHT22;31788;6.954;-71.872;2022-11-15T02:29:20;27.30;99.90
46055;DHT22;31788;6.954;-71.872;2022-11-15T02:32:09;27.30;99.90
46055;DHT22;31788;6.954;-71.872;2022-11-15T02:40:17;27.30;99.90
46055;DHT22;31788;6.954;-71.872;2022-11-15T02:42:57;27.30;99.90
46055;DHT22;31788;6.954;-71.872;2022-11-15T02:45:51;27.30;99.90
46055;DHT22;31788;6.954;-71.872;2022-11-15T02:48:21;27.30;99.90
46055;DHT22;31788;6.954;-71.872;2022-11-15T02:50:49;27.30;99.90
46055;DHT22;31788;6.954;-71.872;2022-11-15T02:53:15;27.30;99.90
46055;DHT22;31788;6.954;-71.872;2022-11-15T02:55:46;27.30;99.90
46055;DHT22;31788;6.954;-71.872;2022-11-15T03:07:04;27.20;99.90
46055;DHT22;31788;6.954;-71.872;2022-11-15T03:09:39;27.20;99.90
46055;DHT22;31788;6.954;-71.872;2022-11-15T03:12:22;27.20;99.90
46055;DHT22;31788;6.954;-71.872;2022-11-15T03:15:06;27.20;99.90
46055;DHT22;31788;6.954;-71.872;2022-11-15T03:18:04;27.20;99.90
46055;DHT22;31788;6.954;-71.872;2022-11-15T03:20:28;27.20;99.90
46055;DHT22;31788;6.954;-71.872;2022-11-15T03:23:03;27.20;99.90
46055;DHT22;31788;6.954;-71.872;2022-11-15T03:25:32;27.20;99.90
46055;DHT22;31788;6.954;-71.872;2022-11-15T03:28:03;27.20;99.90
46055;DHT22;31788;6.954;-71.872;2022-11-15T03:30:32;27.10;99.90
46055;DHT22;31788;6.954;-71.872;2022-11-15T03:33:03;27.10;99.90
46055;DHT22;31788;6.954;-71.872;2022-11-15T03:35:40;27.00;99.90
46055;DHT22;31788;6.954;-71.872;2022-11-15T03:40:47;27.00;99.90
46055;DHT22;31788;6.954;-71.872;2022-11-15T03:46:36;27.00;99.90
46055;DHT22;31788;6.954;-71.872;2022-11-15T03:48:47;27.00;99.90
46055;DHT22;31788;6.954;-71.872;2022-11-15T03:51:15;26.90;99.90
46055;DHT22;31788;6.954;-71.872;2022-11-15T03:53:42;27.00;99.90
46055;DHT22;31788;6.954;-71.872;2022-11-15T03:56:11;26.90;99.90
46055;DHT22;31788;6.954;-71.872;2022-11-15T03:58:38;26.90;99.90
46055;DHT22;31788;6.954;-71.872;2022-11-15T04:01:05;26.90;99.90
46055;DHT22;31788;6.954;-71.872;2022-11-15T04:03:31;26.90;99.90
46055;DHT22;31788;6.954;-71.872;2022-11-15T04:05:58;26.90;99.90
46055;DHT22;31788;6.954;-71.872;2022-11-15T04:08:24;26.90;99.90
46055;DHT22;31788;6.954;-71.872;2022-11-15T04:10:51;26.80;99.90
46055;DHT22;31788;6.954;-71.872;2022-11-15T04:13:21;26.80;99.90
46055;DHT22;31788;6.954;-71.872;2022-11-15T04:15:47;26.80;99.90
46055;DHT22;31788;6.954;-71.872;2022-11-15T04:18:14;26.80;99.90
46055;DHT22;31788;6.954;-71.872;2022-11-15T04:20:40;26.80;99.90
46055;DHT22;31788;6.954;-71.872;2022-11-15T04:23:25;26.80;99.90
46055;DHT22;31788;6.954;-71.872;2022-11-15T04:26:17;26.70;99.90
46055;DHT22;31788;6.954;-71.872;2022-11-15T04:28:44;26.70;99.90
46055;DHT22;31788;6.954;-71.872;2022-11-15T04:31:29;26.70;99.90
46055;DHT22;31788;6.954;-71.872;2022-11-15T04:33:56;26.70;99.90
46055;DHT22;31788;6.954;-71.872;2022-11-15T04:36:23;26.70;99.90
46055;DHT22;31788;6.954;-71.872;2022-11-15T04:39:08;26.70;99.90
46055;DHT22;31788;6.954;-71.872;2022-11-15T04:41:34;26.70;99.90
46055;DHT22;31788;6.954;-71.872;2022-11-15T04:44:01;26.70;99.90
46055;DHT22;31788;6.954;-71.872;2022-11-15T04:46:28;26.60;99.90
46055;DHT22;31788;6.954;-71.872;2022-11-15T04:48:55;26.60;99.90
46055;DHT22;31788;6.954;-71.872;2022-11-15T04:51:21;26.70;99.90
46055;DHT22;31788;6.954;-71.872;2022-11-15T04:53:48;26.60;99.90
46055;DHT22;31788;6.954;-71.872;2022-11-15T04:56:14;26.70;99.90
46055;DHT22;31788;6.954;-71.872;2022-11-15T04:58:41;26.60;99.90
46055;DHT22;31788;6.954;-71.872;2022-11-15T05:01:09;26.60;99.90
46055;DHT22;31788;6.954;-71.872;2022-11-15T05:03:35;26.60;99.90
46055;DHT22;31788;6.954;-71.872;2022-11-15T05:06:20;26.60;99.90
46055;DHT22;31788;6.954;-71.872;2022-11-15T05:08:47;26.60;99.90
46055;DHT22;31788;6.954;-71.872;2022-11-15T05:11:13;26.60;99.90
46055;DHT22;31788;6.954;-71.872;2022-11-15T05:13:40;26.60;99.90
46055;DHT22;31788;6.954;-71.872;2022-11-15T05:16:06;26.50;99.90
46055;DHT22;31788;6.954;-71.872;2022-11-15T05:18:33;26.50;99.90
46055;DHT22;31788;6.954;-71.872;2022-11-15T05:21:08;26.50;99.90
46055;DHT22;31788;6.954;-71.872;2022-11-15T05:23:35;26.50;99.90
46055;DHT22;31788;6.954;-71.872;2022-11-15T05:26:02;26.50;99.90
46055;DHT22;31788;6.954;-71.872;2022-11-15T05:28:29;26.50;99.90
46055;DHT22;31788;6.954;-71.872;2022-11-15T05:31:06;26.50;99.90
46055;DHT22;31788;6.954;-71.872;2022-11-15T05:33:35;26.50;99.90
46055;DHT22;31788;6.954;-71.872;2022-11-15T05:36:20;26.40;99.90
46055;DHT22;31788;6.954;-71.872;2022-11-15T05:38:48;26.40;99.90
46055;DHT22;31788;6.954;-71.872;2022-11-15T05:41:18;26.40;99.90
46055;DHT22;31788;6.954;-71.872;2022-11-15T05:43:45;26.50;99.90
46055;DHT22;31788;6.954;-71.872;2022-11-15T05:46:14;26.50;99.90
46055;DHT22;31788;6.954;-71.872;2022-11-15T05:48:43;26.50;99.90
46055;DHT22;31788;6.954;-71.872;2022-11-15T05:51:12;26.50;99.90
46055;DHT22;31788;6.954;-71.872;2022-11-15T05:53:40;26.50;99.90
46055;DHT22;31788;6.954;-71.872;2022-11-15T05:56:09;26.50;99.90
46055;DHT22;31788;6.954;-71.872;2022-11-15T05:58:37;26.50;99.90
46055;DHT22;31788;6.954;-71.872;2022-11-15T06:01:04;26.50;99.90
46055;DHT22;31788;6.954;-71.872;2022-11-15T06:03:30;26.50;99.90
46055;DHT22;31788;6.954;-71.872;2022-11-15T06:05:57;26.50;99.90
46055;DHT22;31788;6.954;-71.872;2022-11-15T06:08:24;26.40;99.90
46055;DHT22;31788;6.954;-71.872;2022-11-15T06:10:50;26.40;99.90
46055;DHT22;31788;6.954;-71.872;2022-11-15T06:13:17;26.40;99.90
46055;DHT22;31788;6.954;-71.872;2022-11-15T06:15:43;26.40;99.90
46055;DHT22;31788;6.954;-71.872;2022-11-15T06:18:10;26.30;99.90
46055;DHT22;31788;6.954;-71.872;2022-11-15T06:20:36;26.40;99.90
46055;DHT22;31788;6.954;-71.872;2022-11-15T06:23:04;26.30;99.90
46055;DHT22;31788;6.954;-71.872;2022-11-15T06:25:31;26.30;99.90
46055;DHT22;31788;6.954;-71.872;2022-11-15T06:27:59;26.30;99.90
46055;DHT22;31788;6.954;-71.872;2022-11-15T06:30:26;26.30;99.90
46055;DHT22;31788;6.954;-71.872;2022-11-15T06:33:04;26.30;99.90
46055;DHT22;31788;6.954;-71.872;2022-11-15T06:35:33;26.30;99.90
46055;DHT22;31788;6.954;-71.872;2022-11-15T06:38:06;26.30;99.90
46055;DHT22;31788;6.954;-71.872;2022-11-15T06:40:35;26.30;99.90
46055;DHT22;31788;6.954;-71.872;2022-11-15T06:43:02;26.30;99.90
46055;DHT22;31788;6.954;-71.872;2022-11-15T06:45:29;26.30;99.90
46055;DHT22;31788;6.954;-71.872;2022-11-15T06:47:56;26.30;99.90
46055;DHT22;31788;6.954;-71.872;2022-11-15T06:50:23;26.30;99.90
46055;DHT22;31788;6.954;-71.872;2022-11-15T06:52:49;26.30;99.90
46055;DHT22;31788;6.954;-71.872;2022-11-15T06:55:16;26.20;99.90
46055;DHT22;31788;6.954;-71.872;2022-11-15T06:57:50;26.30;99.90
46055;DHT22;31788;6.954;-71.872;2022-11-15T07:00:19;26.30;99.90
46055;DHT22;31788;6.954;-71.872;2022-11-15T07:02:46;26.30;99.90
46055;DHT22;31788;6.954;-71.872;2022-11-15T07:05:13;26.30;99.90
46055;DHT22;31788;6.954;-71.872;2022-11-15T07:07:40;26.30;99.90
46055;DHT22;31788;6.954;-71.872;2022-11-15T07:10:08;26.30;99.90
46055;DHT22;31788;6.954;-71.872;2022-11-15T07:12:35;26.30;99.70
46055;DHT22;31788;6.954;-71.872;2022-11-15T07:15:03;26.30;99.90
46055;DHT22;31788;6.954;-71.872;2022-11-15T07:17:30;26.30;99.90
46055;DHT22;31788;6.954;-71.872;2022-11-15T07:19:56;26.20;99.90
46055;DHT22;31788;6.954;-71.872;2022-11-15T07:22:23;26.20;99.90
46055;DHT22;31788;6.954;-71.872;2022-11-15T07:24:49;26.20;99.90
46055;DHT22;31788;6.954;-71.872;2022-11-15T07:27:17;26.30;99.90
46055;DHT22;31788;6.954;-71.872;2022-11-15T07:29:43;26.20;99.90
46055;DHT22;31788;6.954;-71.872;2022-11-15T07:32:10;26.20;99.90
46055;DHT22;31788;6.954;-71.872;2022-11-15T07:34:36;26.20;99.90
46055;DHT22;31788;6.954;-71.872;2022-11-15T07:37:03;26.20;99.90
46055;DHT22;31788;6.954;-71.872;2022-11-15T07:39:30;26.20;99.90
46055;DHT22;31788;6.954;-71.872;2022-11-15T07:41:56;26.20;99.90
46055;DHT22;31788;6.954;-71.872;2022-11-15T07:44:43;26.20;99.90
46055;DHT22;31788;6.954;-71.872;2022-11-15T07:47:09;26.20;99.90
46055;DHT22;31788;6.954;-71.872;2022-11-15T07:49:36;26.20;99.90
46055;DHT22;31788;6.954;-71.872;2022-11-15T07:52:02;26.20;99.90
46055;DHT22;31788;6.954;-71.872;2022-11-15T07:54:29;26.20;99.90
46055;DHT22;31788;6.954;-71.872;2022-11-15T07:56:55;26.20;99.90
46055;DHT22;31788;6.954;-71.872;2022-11-15T07:59:22;26.20;99.90
46055;DHT22;31788;6.954;-71.872;2022-11-15T08:01:49;26.20;99.90
46055;DHT22;31788;6.954;-71.872;2022-11-15T08:04:15;26.20;99.90
46055;DHT22;31788;6.954;-71.872;2022-11-15T08:06:42;26.20;99.90
46055;DHT22;31788;6.954;-71.872;2022-11-15T08:09:08;26.20;99.90
46055;DHT22;31788;6.954;-71.872;2022-11-15T08:11:35;26.20;99.90
46055;DHT22;31788;6.954;-71.872;2022-11-15T08:14:01;26.20;99.90
46055;DHT22;31788;6.954;-71.872;2022-11-15T08:16:28;26.20;99.90
46055;DHT22;31788;6.954;-71.872;2022-11-15T08:18:54;26.20;99.90
46055;DHT22;31788;6.954;-71.872;2022-11-15T08:21:21;26.20;99.90
46055;DHT22;31788;6.954;-71.872;2022-11-15T08:23:48;26.20;99.80
46055;DHT22;31788;6.954;-71.872;2022-11-15T08:26:15;26.20;99.90
46055;DHT22;31788;6.954;-71.872;2022-11-15T08:28:42;26.20;99.90
46055;DHT22;31788;6.954;-71.872;2022-11-15T08:31:18;26.20;99.90
46055;DHT22;31788;6.954;-71.872;2022-11-15T08:33:45;26.20;99.90
46055;DHT22;31788;6.954;-71.872;2022-11-15T08:36:14;26.20;99.90
46055;DHT22;31788;6.954;-71.872;2022-11-15T08:38:41;26.20;99.90
46055;DHT22;31788;6.954;-71.872;2022-11-15T08:41:44;26.20;99.90
46055;DHT22;31788;6.954;-71.872;2022-11-15T08:44:04;26.20;99.90
46055;DHT22;31788;6.954;-71.872;2022-11-15T08:46:31;26.20;99.90
46055;DHT22;31788;6.954;-71.872;2022-11-15T08:48:57;26.20;99.90
46055;DHT22;31788;6.954;-71.872;2022-11-15T08:51:24;26.20;99.90
46055;DHT22;31788;6.954;-71.872;2022-11-15T08:53:50;26.20;99.90
46055;DHT22;31788;6.954;-71.872;2022-11-15T08:56:17;26.20;99.90
46055;DHT22;31788;6.954;-71.872;2022-11-15T08:58:43;26.20;99.90
46055;DHT22;31788;6.954;-71.872;2022-11-15T09:01:20;26.10;99.90
46055;DHT22;31788;6.954;-71.872;2022-11-15T09:03:46;26.10;99.90
46055;DHT22;31788;6.954;-71.872;2022-11-15T09:06:13;26.10;99.90
46055;DHT22;31788;6.954;-71.872;2022-11-15T09:08:40;26.10;99.90
46055;DHT22;31788;6.954;-71.872;2022-11-15T09:11:09;26.10;99.90
46055;DHT22;31788;6.954;-71.872;2022-11-15T09:13:36;26.00;99.90
46055;DHT22;31788;6.954;-71.872;2022-11-15T09:16:04;26.10;99.90
46055;DHT22;31788;6.954;-71.872;2022-11-15T09:18:31;26.10;99.90
46055;DHT22;31788;6.954;-71.872;2022-11-15T09:20:58;26.10;99.90
46055;DHT22;31788;6.954;-71.872;2022-11-15T09:23:26;26.10;99.90
46055;DHT22;31788;6.954;-71.872;2022-11-15T09:25:57;26.10;99.90
46055;DHT22;31788;6.954;-71.872;2022-11-15T09:28:24;26.10;99.90
46055;DHT22;31788;6.954;-71.872;2022-11-15T09:30:50;26.10;99.90
46055;DHT22;31788;6.954;-71.872;2022-11-15T09:33:17;26.10;99.90
46055;DHT22;31788;6.954;-71.872;2022-11-15T09:35:43;26.10;99.90
46055;DHT22;31788;6.954;-71.872;2022-11-15T09:38:10;26.10;99.90
46055;DHT22;31788;6.954;-71.872;2022-11-15T09:40:37;26.10;99.90
46055;DHT22;31788;6.954;-71.872;2022-11-15T09:46:15;26.10;99.90
46055;DHT22;31788;6.954;-71.872;2022-11-15T09:48:58;26.10;99.90
46055;DHT22;31788;6.954;-71.872;2022-11-15T09:51:30;26.10;99.90
46055;DHT22;31788;6.954;-71.872;2022-11-15T09:54:33;26.10;99.90
46055;DHT22;31788;6.954;-71.872;2022-11-15T10:04:54;26.10;99.90
46055;DHT22;31788;6.954;-71.872;2022-11-15T10:12:45;26.10;99.90
46055;DHT22;31788;6.954;-71.872;2022-11-15T10:15:16;26.10;99.90
46055;DHT22;31788;6.954;-71.872;2022-11-15T10:20:42;26.10;99.90
46055;DHT22;31788;6.954;-71.872;2022-11-15T10:23:13;26.10;99.90
46055;DHT22;31788;6.954;-71.872;2022-11-15T10:25:40;26.10;99.90
46055;DHT22;31788;6.954;-71.872;2022-11-15T10:28:17;26.10;99.90
46055;DHT22;31788;6.954;-71.872;2022-11-15T10:30:49;26.20;99.90
46055;DHT22;31788;6.954;-71.872;2022-11-15T10:33:32;26.20;99.90
46055;DHT22;31788;6.954;-71.872;2022-11-15T10:36:18;26.20;99.90
46055;DHT22;31788;6.954;-71.872;2022-11-15T10:38:53;26.20;99.90
46055;DHT22;31788;6.954;-71.872;2022-11-15T10:41:34;26.20;99.90
46055;DHT22;31788;6.954;-71.872;2022-11-15T10:44:12;26.20;99.90
46055;DHT22;31788;6.954;-71.872;2022-11-15T10:47:03;26.20;99.90
46055;DHT22;31788;6.954;-71.872;2022-11-15T10:49:32;26.20;99.90
46055;DHT22;31788;6.954;-71.872;2022-11-15T10:54:45;26.20;99.90
46055;DHT22;31788;6.954;-71.872;2022-11-15T10:57:17;26.30;99.90
46055;DHT22;31788;6.954;-71.872;2022-11-15T11:00:01;26.30;99.90
46055;DHT22;31788;6.954;-71.872;2022-11-15T11:02:35;26.30;99.90
46055;DHT22;31788;6.954;-71.872;2022-11-15T11:05:05;26.30;99.90
46055;DHT22;31788;6.954;-71.872;2022-11-15T11:07:34;26.30;99.90
46055;DHT22;31788;6.954;-71.872;2022-11-15T11:10:19;26.30;99.90
46055;DHT22;31788;6.954;-71.872;2022-11-15T11:12:46;26.30;99.90
46055;DHT22;31788;6.954;-71.872;2022-11-15T11:15:14;26.40;99.90
46055;DHT22;31788;6.954;-71.872;2022-11-15T11:18:19;26.40;99.90
46055;DHT22;31788;6.954;-71.872;2022-11-15T11:20:58;26.40;99.90
46055;DHT22;31788;6.954;-71.872;2022-11-15T11:31:53;26.60;99.90
46055;DHT22;31788;6.954;-71.872;2022-11-15T11:51:28;26.80;99.90
46055;DHT22;31788;6.954;-71.872;2022-11-15T11:54:24;26.80;99.90
46055;DHT22;31788;6.954;-71.872;2022-11-15T11:56:53;26.80;99.90
46055;DHT22;31788;6.954;-71.872;2022-11-15T11:59:42;26.80;99.90
46055;DHT22;31788;6.954;-71.872;2022-11-15T12:02:27;26.90;99.90
46055;DHT22;31788;6.954;-71.872;2022-11-15T12:05:10;26.90;99.90
46055;DHT22;31788;6.954;-71.872;2022-11-15T12:07:40;26.90;99.90
46055;DHT22;31788;6.954;-71.872;2022-11-15T12:18:03;27.10;99.90
46055;DHT22;31788;6.954;-71.872;2022-11-15T12:20:36;27.10;99.90
46055;DHT22;31788;6.954;-71.872;2022-11-15T12:23:16;27.20;99.90
46055;DHT22;31788;6.954;-71.872;2022-11-15T12:26:04;27.20;99.90
46055;DHT22;31788;6.954;-71.872;2022-11-15T12:28:54;27.20;99.90
46055;DHT22;31788;6.954;-71.872;2022-11-15T12:34:15;27.30;99.90
46055;DHT22;31788;6.954;-71.872;2022-11-15T12:36:55;27.20;99.90
46055;DHT22;31788;6.954;-71.872;2022-11-15T12:40:24;27.30;99.90
46055;DHT22;31788;6.954;-71.872;2022-11-15T12:44:58;27.30;99.90
46055;DHT22;31788;6.954;-71.872;2022-11-15T12:47:27;27.20;99.90
46055;DHT22;31788;6.954;-71.872;2022-11-15T12:49:54;27.20;99.90
46055;DHT22;31788;6.954;-71.872;2022-11-15T12:52:21;27.30;99.90
46055;DHT22;31788;6.954;-71.872;2022-11-15T12:54:53;27.30;99.90
46055;DHT22;31788;6.954;-71.872;2022-11-15T12:59:54;27.40;99.90
46055;DHT22;31788;6.954;-71.872;2022-11-15T13:02:42;27.40;99.90
46055;DHT22;31788;6.954;-71.872;2022-11-15T13:10:34;27.40;99.90
46055;DHT22;31788;6.954;-71.872;2022-11-15T13:13:08;27.40;99.90
46055;DHT22;31788;6.954;-71.872;2022-11-15T13:15:35;27.40;99.90
46055;DHT22;31788;6.954;-71.872;2022-11-15T13:18:29;27.50;99.90
46055;DHT22;31788;6.954;-71.872;2022-11-15T13:20:56;27.50;99.90
46055;DHT22;31788;6.954;-71.872;2022-11-15T13:23:23;27.50;99.90
46055;DHT22;31788;6.954;-71.872;2022-11-15T13:28:45;27.50;99.90
46055;DHT22;31788;6.954;-71.872;2022-11-15T13:33:44;27.50;99.90
46055;DHT22;31788;6.954;-71.872;2022-11-15T13:36:27;27.60;99.90
46055;DHT22;31788;6.954;-71.872;2022-11-15T13:39:12;27.60;99.90
46055;DHT22;31788;6.954;-71.872;2022-11-15T13:41:51;27.60;99.90
46055;DHT22;31788;6.954;-71.872;2022-11-15T13:44:29;27.60;99.90
46055;DHT22;31788;6.954;-71.872;2022-11-15T13:47:20;27.70;99.90
46055;DHT22;31788;6.954;-71.872;2022-11-15T13:49:48;27.70;99.90
46055;DHT22;31788;6.954;-71.872;2022-11-15T13:52:15;27.80;99.90
46055;DHT22;31788;6.954;-71.872;2022-11-15T13:54:44;27.80;99.90
46055;DHT22;31788;6.954;-71.872;2022-11-15T13:57:24;27.80;99.90
46055;DHT22;31788;6.954;-71.872;2022-11-15T13:59:55;27.80;99.90
46055;DHT22;31788;6.954;-71.872;2022-11-15T14:02:35;27.80;99.90
46055;DHT22;31788;6.954;-71.872;2022-11-15T14:05:26;27.80;99.90
46055;DHT22;31788;6.954;-71.872;2022-11-15T14:11:07;27.90;99.90
46055;DHT22;31788;6.954;-71.872;2022-11-15T14:13:34;27.80;99.90
46055;DHT22;31788;6.954;-71.872;2022-11-15T14:16:32;27.90;99.90
46055;DHT22;31788;6.954;-71.872;2022-11-15T14:18:59;27.90;99.90
46055;DHT22;31788;6.954;-71.872;2022-11-15T14:21:26;27.90;99.90
46055;DHT22;31788;6.954;-71.872;2022-11-15T14:23:52;27.90;99.90
46055;DHT22;31788;6.954;-71.872;2022-11-15T14:26:32;28.00;99.90
46055;DHT22;31788;6.954;-71.872;2022-11-15T14:29:24;28.00;99.90
46055;DHT22;31788;6.954;-71.872;2022-11-15T14:31:52;28.00;99.90
46055;DHT22;31788;6.954;-71.872;2022-11-15T14:34:18;28.00;99.90
46055;DHT22;31788;6.954;-71.872;2022-11-15T14:36:47;28.00;99.90
46055;DHT22;31788;6.954;-71.872;2022-11-15T14:39:14;28.10;99.90
46055;DHT22;31788;6.954;-71.872;2022-11-15T14:41:40;28.00;99.90
46055;DHT22;31788;6.954;-71.872;2022-11-15T14:44:10;28.10;99.90
46055;DHT22;31788;6.954;-71.872;2022-11-15T14:46:38;28.10;99.90
46055;DHT22;31788;6.954;-71.872;2022-11-15T14:49:04;28.00;99.90
46055;DHT22;31788;6.954;-71.872;2022-11-15T14:51:31;28.10;99.90
46055;DHT22;31788;6.954;-71.872;2022-11-15T14:53:58;28.10;99.90
46055;DHT22;31788;6.954;-71.872;2022-11-15T14:56:25;28.20;99.90
46055;DHT22;31788;6.954;-71.872;2022-11-15T14:58:52;28.20;99.90
46055;DHT22;31788;6.954;-71.872;2022-11-15T15:01:25;28.20;99.90
46055;DHT22;31788;6.954;-71.872;2022-11-15T15:03:52;28.20;99.90
46055;DHT22;31788;6.954;-71.872;2022-11-15T15:06:21;28.20;99.90
46055;DHT22;31788;6.954;-71.872;2022-11-15T15:08:48;28.20;99.90
46055;DHT22;31788;6.954;-71.872;2022-11-15T15:11:30;28.20;99.90
46055;DHT22;31788;6.954;-71.872;2022-11-15T15:13:57;28.20;99.90
46055;DHT22;31788;6.954;-71.872;2022-11-15T15:16:27;28.30;99.90
46055;DHT22;31788;6.954;-71.872;2022-11-15T15:18:54;28.30;99.90
46055;DHT22;31788;6.954;-71.872;2022-11-15T15:21:27;28.40;99.90
46055;DHT22;31788;6.954;-71.872;2022-11-15T15:23:55;28.30;99.90
46055;DHT22;31788;6.954;-71.872;2022-11-15T15:26:24;28.30;99.90
46055;DHT22;31788;6.954;-71.872;2022-11-15T15:28:51;28.40;99.90
46055;DHT22;31788;6.954;-71.872;2022-11-15T15:31:18;28.30;99.90
46055;DHT22;31788;6.954;-71.872;2022-11-15T15:33:45;28.40;99.90
46055;DHT22;31788;6.954;-71.872;2022-11-15T15:36:12;28.40;99.90
46055;DHT22;31788;6.954;-71.872;2022-11-15T15:38:39;28.40;99.90
46055;DHT22;31788;6.954;-71.872;2022-11-15T15:41:11;28.40;99.90
46055;DHT22;31788;6.954;-71.872;2022-11-15T15:43:38;28.40;99.90
46055;DHT22;31788;6.954;-71.872;2022-11-15T15:46:10;28.40;99.90
46055;DHT22;31788;6.954;-71.872;2022-11-15T15:48:37;28.40;99.90
46055;DHT22;31788;6.954;-71.872;2022-11-15T15:51:06;28.50;99.90
46055;DHT22;31788;6.954;-71.872;2022-11-15T15:53:33;28.50;99.90
46055;DHT22;31788;6.954;-71.872;2022-11-15T15:56:01;28.50;99.90
46055;DHT22;31788;6.954;-71.872;2022-11-15T15:58:27;28.50;99.90
46055;DHT22;31788;6.954;-71.872;2022-11-15T16:00:54;28.50;99.90
46055;DHT22;31788;6.954;-71.872;2022-11-15T16:03:20;28.50;99.90
46055;DHT22;31788;6.954;-71.872;2022-11-15T16:05:50;28.50;99.90
46055;DHT22;31788;6.954;-71.872;2022-11-15T16:08:24;28.50;99.90
46055;DHT22;31788;6.954;-71.872;2022-11-15T16:10:52;28.50;99.90
46055;DHT22;31788;6.954;-71.872;2022-11-15T16:13:19;28.50;99.90
46055;DHT22;31788;6.954;-71.872;2022-11-15T16:15:47;28.50;99.90
46055;DHT22;31788;6.954;-71.872;2022-11-15T16:18:17;28.60;99.90
46055;DHT22;31788;6.954;-71.872;2022-11-15T16:20:46;28.60;99.90
46055;DHT22;31788;6.954;-71.872;2022-11-15T16:23:16;28.60;99.90
46055;DHT22;31788;6.954;-71.872;2022-11-15T16:25:53;28.70;99.90
46055;DHT22;31788;6.954;-71.872;2022-11-15T16:28:30;28.70;99.70
46055;DHT22;31788;6.954;-71.872;2022-11-15T16:34:19;28.70;99.80
46055;DHT22;31788;6.954;-71.872;2022-11-15T16:36:46;28.70;99.70
46055;DHT22;31788;6.954;-71.872;2022-11-15T16:39:13;28.80;99.80
46055;DHT22;31788;6.954;-71.872;2022-11-15T16:41:44;28.80;99.70
46055;DHT22;31788;6.954;-71.872;2022-11-15T16:44:14;28.80;99.30
46055;DHT22;31788;6.954;-71.872;2022-11-15T16:46:43;28.90;99.30
46055;DHT22;31788;6.954;-71.872;2022-11-15T16:49:14;28.90;99.30
46055;DHT22;31788;6.954;-71.872;2022-11-15T16:51:42;28.90;99.30
46055;DHT22;31788;6.954;-71.872;2022-11-15T16:54:12;28.90;99.10
46055;DHT22;31788;6.954;-71.872;2022-11-15T16:56:39;29.00;99.20
46055;DHT22;31788;6.954;-71.872;2022-11-15T16:59:10;29.00;99.10
46055;DHT22;31788;6.954;-71.872;2022-11-15T17:01:39;29.10;98.80
46055;DHT22;31788;6.954;-71.872;2022-11-15T17:04:12;29.10;98.10
46055;DHT22;31788;6.954;-71.872;2022-11-15T17:06:40;29.10;98.60
46055;DHT22;31788;6.954;-71.872;2022-11-15T17:09:18;29.10;98.90
46055;DHT22;31788;6.954;-71.872;2022-11-15T17:11:45;29.20;98.90
46055;DHT22;31788;6.954;-71.872;2022-11-15T17:14:12;29.20;99.00
46055;DHT22;31788;6.954;-71.872;2022-11-15T17:16:39;29.20;99.00
46055;DHT22;31788;6.954;-71.872;2022-11-15T17:19:17;29.20;98.80
46055;DHT22;31788;6.954;-71.872;2022-11-15T17:21:45;29.20;98.90
46055;DHT22;31788;6.954;-71.872;2022-11-15T17:24:14;29.20;98.90